Albertslund, Denmark
Current Conditions -  °F | °C
As of 7:20 PM on Wednesday 28 Jan 2015 (Local Time) from EKRK Reporting Station
Light Rain Light Rain  
Wind Chill: 29°   Ceiling: 1100
Heat Index: 39°   Visibility: 5mi
Dew Point: 36°   Wind: 21mph
Humidity: 87%   Direction: 190°S
Pressure: 29.06"   Gusts: NA
Location:  55.66°N, 12.36°E
Report Text: EKRK 281820Z AUTO 19018KT 8000NDV -RA FEW009/// BKN011///OVC017/// 04/02 Q0984
Loading
Personal Weather Stations






























Interactive Weather Map New forecast layout! Learn more

10-Day Weather Forecast

Advertisements
Track Severe Weather on mobile